sensor_id;sensor_type;location;lat;lon;timestamp;temperature;humidity
21275;DHT22;36472;52.170;20.884;2023-07-31T00:00:29;34.20;48.50
21275;DHT22;36472;52.170;20.884;2023-07-31T00:03:18;34.10;48.30
21275;DHT22;36472;52.170;20.884;2023-07-31T00:05:47;34.10;48.20
21275;DHT22;36472;52.170;20.884;2023-07-31T00:08:17;34.10;48.70
21275;DHT22;36472;52.170;20.884;2023-07-31T00:10:46;34.00;48.30
21275;DHT22;36472;52.170;20.884;2023-07-31T00:13:15;34.00;49.10
21275;DHT22;36472;52.170;20.884;2023-07-31T00:15:44;33.90;48.60
21275;DHT22;36472;52.170;20.884;2023-07-31T00:18:13;34.00;48.30
21275;DHT22;36472;52.170;20.884;2023-07-31T00:20:42;33.90;48.40
21275;DHT22;36472;52.170;20.884;2023-07-31T00:23:11;33.90;48.50
21275;DHT22;36472;52.170;20.884;2023-07-31T00:25:41;33.90;48.30
21275;DHT22;36472;52.170;20.884;2023-07-31T00:28:11;33.90;48.30
21275;DHT22;36472;52.170;20.884;2023-07-31T00:30:39;33.80;48.40
21275;DHT22;36472;52.170;20.884;2023-07-31T00:33:08;33.90;48.30
21275;DHT22;36472;52.170;20.884;2023-07-31T00:35:37;33.80;48.20
21275;DHT22;36472;52.170;20.884;2023-07-31T00:38:06;33.80;48.30
21275;DHT22;36472;52.170;20.884;2023-07-31T00:40:35;33.80;48.30
21275;DHT22;36472;52.170;20.884;2023-07-31T00:43:06;33.80;48.40
21275;DHT22;36472;52.170;20.884;2023-07-31T00:45:35;33.80;48.30
21275;DHT22;36472;52.170;20.884;2023-07-31T00:48:05;33.80;48.50
21275;DHT22;36472;52.170;20.884;2023-07-31T00:50:35;33.80;48.30
21275;DHT22;36472;52.170;20.884;2023-07-31T00:53:04;33.80;48.30
21275;DHT22;36472;52.170;20.884;2023-07-31T00:55:33;33.80;48.30
21275;DHT22;36472;52.170;20.884;2023-07-31T00:58:03;33.80;48.30
21275;DHT22;36472;52.170;20.884;2023-07-31T01:00:33;33.80;48.80
21275;DHT22;36472;52.170;20.884;2023-07-31T01:03:02;33.80;49.00
21275;DHT22;36472;52.170;20.884;2023-07-31T01:05:36;33.80;49.00
21275;DHT22;36472;52.170;20.884;2023-07-31T01:08:15;33.80;48.70
21275;DHT22;36472;52.170;20.884;2023-07-31T01:10:56;33.70;48.60
21275;DHT22;36472;52.170;20.884;2023-07-31T01:13:31;33.70;48.70
21275;DHT22;36472;52.170;20.884;2023-07-31T01:16:01;33.70;48.70
21275;DHT22;36472;52.170;20.884;2023-07-31T01:18:30;33.70;48.80
21275;DHT22;36472;52.170;20.884;2023-07-31T01:21:16;33.70;49.20
21275;DHT22;36472;52.170;20.884;2023-07-31T01:24:11;33.70;49.10
21275;DHT22;36472;52.170;20.884;2023-07-31T01:26:55;33.70;49.20
21275;DHT22;36472;52.170;20.884;2023-07-31T01:29:33;33.60;49.60
21275;DHT22;36472;52.170;20.884;2023-07-31T01:32:12;33.60;49.10
21275;DHT22;36472;52.170;20.884;2023-07-31T01:34:42;33.50;49.20
21275;DHT22;36472;52.170;20.884;2023-07-31T01:37:12;33.50;49.60
21275;DHT22;36472;52.170;20.884;2023-07-31T01:39:41;33.50;49.50
21275;DHT22;36472;52.170;20.884;2023-07-31T01:42:12;33.50;49.50
21275;DHT22;36472;52.170;20.884;2023-07-31T01:44:43;33.50;49.90
21275;DHT22;36472;52.170;20.884;2023-07-31T01:47:12;33.50;49.90
21275;DHT22;36472;52.170;20.884;2023-07-31T01:49:41;33.40;49.80
21275;DHT22;36472;52.170;20.884;2023-07-31T01:52:10;33.40;49.60
21275;DHT22;36472;52.170;20.884;2023-07-31T01:54:39;33.40;50.00
21275;DHT22;36472;52.170;20.884;2023-07-31T01:57:09;33.40;49.80
21275;DHT22;36472;52.170;20.884;2023-07-31T01:59:39;33.30;49.70
21275;DHT22;36472;52.170;20.884;2023-07-31T02:02:08;33.40;49.80
21275;DHT22;36472;52.170;20.884;2023-07-31T02:04:37;33.30;49.90
21275;DHT22;36472;52.170;20.884;2023-07-31T02:07:08;33.30;50.00
21275;DHT22;36472;52.170;20.884;2023-07-31T02:09:37;33.30;50.10
21275;DHT22;36472;52.170;20.884;2023-07-31T02:12:06;33.30;50.10
21275;DHT22;36472;52.170;20.884;2023-07-31T02:14:38;33.30;50.20
21275;DHT22;36472;52.170;20.884;2023-07-31T02:17:07;33.30;50.30
21275;DHT22;36472;52.170;20.884;2023-07-31T02:19:36;33.30;50.20
21275;DHT22;36472;52.170;20.884;2023-07-31T02:22:05;33.30;50.30
21275;DHT22;36472;52.170;20.884;2023-07-31T02:24:34;33.30;50.30
21275;DHT22;36472;52.170;20.884;2023-07-31T02:27:04;33.30;50.40
21275;DHT22;36472;52.170;20.884;2023-07-31T02:29:33;33.30;50.30
21275;DHT22;36472;52.170;20.884;2023-07-31T02:32:04;33.20;50.20
21275;DHT22;36472;52.170;20.884;2023-07-31T02:34:33;33.30;50.20
21275;DHT22;36472;52.170;20.884;2023-07-31T02:37:02;33.20;50.30
21275;DHT22;36472;52.170;20.884;2023-07-31T02:39:32;33.20;50.20
21275;DHT22;36472;52.170;20.884;2023-07-31T02:42:01;33.20;50.30
21275;DHT22;36472;52.170;20.884;2023-07-31T02:44:31;33.20;50.30
21275;DHT22;36472;52.170;20.884;2023-07-31T02:47:00;33.20;50.40
21275;DHT22;36472;52.170;20.884;2023-07-31T02:49:32;33.30;50.40
21275;DHT22;36472;52.170;20.884;2023-07-31T02:52:00;33.30;50.30
21275;DHT22;36472;52.170;20.884;2023-07-31T02:54:30;33.30;50.10
21275;DHT22;36472;52.170;20.884;2023-07-31T02:56:58;33.30;50.10
21275;DHT22;36472;52.170;20.884;2023-07-31T02:59:28;33.30;50.00
21275;DHT22;36472;52.170;20.884;2023-07-31T03:01:57;33.30;50.10
21275;DHT22;36472;52.170;20.884;2023-07-31T03:04:26;33.30;50.10
21275;DHT22;36472;52.170;20.884;2023-07-31T03:06:57;33.30;49.90
21275;DHT22;36472;52.170;20.884;2023-07-31T03:09:26;33.30;49.90
21275;DHT22;36472;52.170;20.884;2023-07-31T03:11:55;33.30;50.00
21275;DHT22;36472;52.170;20.884;2023-07-31T03:14:24;33.30;49.60
21275;DHT22;36472;52.170;20.884;2023-07-31T03:16:53;33.40;49.60
21275;DHT22;36472;52.170;20.884;2023-07-31T03:19:23;33.40;49.60
21275;DHT22;36472;52.170;20.884;2023-07-31T03:21:51;33.40;49.70
21275;DHT22;36472;52.170;20.884;2023-07-31T03:24:22;33.40;49.60
21275;DHT22;36472;52.170;20.884;2023-07-31T03:26:51;33.40;49.60
21275;DHT22;36472;52.170;20.884;2023-07-31T03:29:20;33.40;49.60
21275;DHT22;36472;52.170;20.884;2023-07-31T03:31:51;33.40;49.70
21275;DHT22;36472;52.170;20.884;2023-07-31T03:34:21;33.40;49.60
21275;DHT22;36472;52.170;20.884;2023-07-31T03:36:50;33.30;49.50
21275;DHT22;36472;52.170;20.884;2023-07-31T03:39:19;33.30;49.70
21275;DHT22;36472;52.170;20.884;2023-07-31T03:41:51;33.40;49.70
21275;DHT22;36472;52.170;20.884;2023-07-31T03:44:20;33.40;49.60
21275;DHT22;36472;52.170;20.884;2023-07-31T03:46:49;33.40;49.50
21275;DHT22;36472;52.170;20.884;2023-07-31T03:49:19;33.40;49.70
21275;DHT22;36472;52.170;20.884;2023-07-31T03:51:48;33.40;50.30
21275;DHT22;36472;52.170;20.884;2023-07-31T03:54:18;33.40;49.80
21275;DHT22;36472;52.170;20.884;2023-07-31T03:56:47;33.40;49.70
21275;DHT22;36472;52.170;20.884;2023-07-31T03:59:17;33.40;49.50
21275;DHT22;36472;52.170;20.884;2023-07-31T04:01:46;33.40;49.60
21275;DHT22;36472;52.170;20.884;2023-07-31T04:04:15;33.40;49.60
21275;DHT22;36472;52.170;20.884;2023-07-31T04:06:44;33.40;49.30
21275;DHT22;36472;52.170;20.884;2023-07-31T04:09:13;33.40;49.40
21275;DHT22;36472;52.170;20.884;2023-07-31T04:11:42;33.40;49.40
21275;DHT22;36472;52.170;20.884;2023-07-31T04:14:11;33.40;49.40
21275;DHT22;36472;52.170;20.884;2023-07-31T04:16:42;33.40;49.20
21275;DHT22;36472;52.170;20.884;2023-07-31T04:19:11;33.40;49.20
21275;DHT22;36472;52.170;20.884;2023-07-31T04:21:44;33.40;49.40
21275;DHT22;36472;52.170;20.884;2023-07-31T04:24:13;33.40;49.20
21275;DHT22;36472;52.170;20.884;2023-07-31T04:26:42;33.40;49.80
21275;DHT22;36472;52.170;20.884;2023-07-31T04:29:11;33.40;49.20
21275;DHT22;36472;52.170;20.884;2023-07-31T04:31:39;33.40;49.30
21275;DHT22;36472;52.170;20.884;2023-07-31T04:34:10;33.40;49.30
21275;DHT22;36472;52.170;20.884;2023-07-31T04:36:39;33.40;49.30
21275;DHT22;36472;52.170;20.884;2023-07-31T04:39:09;33.40;49.30
21275;DHT22;36472;52.170;20.884;2023-07-31T04:41:37;33.40;49.20
21275;DHT22;36472;52.170;20.884;2023-07-31T04:44:06;33.40;49.20
21275;DHT22;36472;52.170;20.884;2023-07-31T04:46:35;33.40;49.10
21275;DHT22;36472;52.170;20.884;2023-07-31T04:49:07;33.40;49.10
21275;DHT22;36472;52.170;20.884;2023-07-31T04:51:35;33.40;49.00
21275;DHT22;36472;52.170;20.884;2023-07-31T04:54:04;33.50;48.90
21275;DHT22;36472;52.170;20.884;2023-07-31T04:56:33;33.40;48.80
21275;DHT22;36472;52.170;20.884;2023-07-31T04:59:02;33.40;49.10
21275;DHT22;36472;52.170;20.884;2023-07-31T05:01:31;33.50;48.90
21275;DHT22;36472;52.170;20.884;2023-07-31T05:04:00;33.40;48.90
21275;DHT22;36472;52.170;20.884;2023-07-31T05:06:31;33.40;48.90
21275;DHT22;36472;52.170;20.884;2023-07-31T05:09:01;33.50;48.80
21275;DHT22;36472;52.170;20.884;2023-07-31T05:11:30;33.50;48.90
21275;DHT22;36472;52.170;20.884;2023-07-31T05:13:59;33.50;48.90
21275;DHT22;36472;52.170;20.884;2023-07-31T05:16:28;33.50;49.00
21275;DHT22;36472;52.170;20.884;2023-07-31T05:18:57;33.50;48.80
21275;DHT22;36472;52.170;20.884;2023-07-31T05:21:26;33.50;48.60
21275;DHT22;36472;52.170;20.884;2023-07-31T05:23:56;33.50;48.70
21275;DHT22;36472;52.170;20.884;2023-07-31T05:26:25;33.50;48.80
21275;DHT22;36472;52.170;20.884;2023-07-31T05:28:55;33.50;48.90
21275;DHT22;36472;52.170;20.884;2023-07-31T05:31:25;33.50;48.90
21275;DHT22;36472;52.170;20.884;2023-07-31T05:33:54;33.50;48.80
21275;DHT22;36472;52.170;20.884;2023-07-31T05:36:23;33.60;48.70
21275;DHT22;36472;52.170;20.884;2023-07-31T05:38:52;33.50;48.70
21275;DHT22;36472;52.170;20.884;2023-07-31T05:41:22;33.50;48.50
21275;DHT22;36472;52.170;20.884;2023-07-31T05:43:51;33.50;48.50
21275;DHT22;36472;52.170;20.884;2023-07-31T05:46:20;33.50;48.50
21275;DHT22;36472;52.170;20.884;2023-07-31T05:48:49;33.50;48.40
21275;DHT22;36472;52.170;20.884;2023-07-31T05:51:18;33.50;48.50
21275;DHT22;36472;52.170;20.884;2023-07-31T05:53:47;33.50;48.70
21275;DHT22;36472;52.170;20.884;2023-07-31T05:56:16;33.50;48.80
21275;DHT22;36472;52.170;20.884;2023-07-31T05:58:46;33.50;48.80
21275;DHT22;36472;52.170;20.884;2023-07-31T06:01:16;33.50;48.90
21275;DHT22;36472;52.170;20.884;2023-07-31T06:03:45;33.50;49.30
21275;DHT22;36472;52.170;20.884;2023-07-31T06:06:14;33.50;49.20
21275;DHT22;36472;52.170;20.884;2023-07-31T06:08:44;33.50;49.20
21275;DHT22;36472;52.170;20.884;2023-07-31T06:11:12;33.50;49.00
21275;DHT22;36472;52.170;20.884;2023-07-31T06:13:42;33.50;49.30
21275;DHT22;36472;52.170;20.884;2023-07-31T06:16:13;33.50;49.40
21275;DHT22;36472;52.170;20.884;2023-07-31T06:18:43;33.60;49.70
21275;DHT22;36472;52.170;20.884;2023-07-31T06:21:11;33.60;49.20
21275;DHT22;36472;52.170;20.884;2023-07-31T06:23:41;33.60;49.20
21275;DHT22;36472;52.170;20.884;2023-07-31T06:26:10;33.50;49.00
21275;DHT22;36472;52.170;20.884;2023-07-31T06:28:39;33.50;49.00
21275;DHT22;36472;52.170;20.884;2023-07-31T06:31:08;33.50;49.30
21275;DHT22;36472;52.170;20.884;2023-07-31T06:33:39;33.50;49.70
21275;DHT22;36472;52.170;20.884;2023-07-31T06:36:08;33.40;49.30
21275;DHT22;36472;52.170;20.884;2023-07-31T06:38:37;33.50;49.50
21275;DHT22;36472;52.170;20.884;2023-07-31T06:41:06;33.50;49.60
21275;DHT22;36472;52.170;20.884;2023-07-31T06:43:35;33.50;49.60
21275;DHT22;36472;52.170;20.884;2023-07-31T06:46:04;33.50;49.50
21275;DHT22;36472;52.170;20.884;2023-07-31T06:48:34;33.50;49.20
21275;DHT22;36472;52.170;20.884;2023-07-31T06:51:05;33.50;49.10
21275;DHT22;36472;52.170;20.884;2023-07-31T06:53:34;33.60;49.20
21275;DHT22;36472;52.170;20.884;2023-07-31T06:56:04;33.60;49.20
21275;DHT22;36472;52.170;20.884;2023-07-31T06:58:33;33.60;48.90
21275;DHT22;36472;52.170;20.884;2023-07-31T07:01:02;33.60;48.90
21275;DHT22;36472;52.170;20.884;2023-07-31T07:03:32;33.60;49.20
21275;DHT22;36472;52.170;20.884;2023-07-31T07:06:01;33.60;48.80
21275;DHT22;36472;52.170;20.884;2023-07-31T07:08:31;33.70;49.00
21275;DHT22;36472;52.170;20.884;2023-07-31T07:11:00;33.70;49.10
21275;DHT22;36472;52.170;20.884;2023-07-31T07:13:29;33.70;48.80
21275;DHT22;36472;52.170;20.884;2023-07-31T07:15:58;33.70;48.60
21275;DHT22;36472;52.170;20.884;2023-07-31T07:18:27;33.80;48.70
21275;DHT22;36472;52.170;20.884;2023-07-31T07:20:56;33.90;48.30
21275;DHT22;36472;52.170;20.884;2023-07-31T07:23:25;33.90;48.40
21275;DHT22;36472;52.170;20.884;2023-07-31T07:25:56;34.00;47.70
21275;DHT22;36472;52.170;20.884;2023-07-31T07:28:25;34.10;48.80
21275;DHT22;36472;52.170;20.884;2023-07-31T07:30:55;34.20;48.60
21275;DHT22;36472;52.170;20.884;2023-07-31T07:33:25;34.30;48.20
21275;DHT22;36472;52.170;20.884;2023-07-31T07:35:54;34.40;47.70
21275;DHT22;36472;52.170;20.884;2023-07-31T07:38:23;34.50;47.50
21275;DHT22;36472;52.170;20.884;2023-07-31T07:40:52;34.60;47.30
21275;DHT22;36472;52.170;20.884;2023-07-31T07:43:23;34.70;46.90
21275;DHT22;36472;52.170;20.884;2023-07-31T07:45:52;34.80;47.00
21275;DHT22;36472;52.170;20.884;2023-07-31T07:48:22;34.90;47.70
21275;DHT22;36472;52.170;20.884;2023-07-31T07:50:52;35.10;47.00
21275;DHT22;36472;52.170;20.884;2023-07-31T07:53:21;35.10;46.10
21275;DHT22;36472;52.170;20.884;2023-07-31T07:55:50;35.10;45.70
21275;DHT22;36472;52.170;20.884;2023-07-31T07:58:19;35.20;45.40
21275;DHT22;36472;52.170;20.884;2023-07-31T08:00:52;35.20;45.60
21275;DHT22;36472;52.170;20.884;2023-07-31T08:03:21;35.20;45.60
21275;DHT22;36472;52.170;20.884;2023-07-31T08:05:51;35.20;45.60
21275;DHT22;36472;52.170;20.884;2023-07-31T08:08:20;35.20;45.10
21275;DHT22;36472;52.170;20.884;2023-07-31T08:10:49;35.20;45.30
21275;DHT22;36472;52.170;20.884;2023-07-31T08:13:18;35.30;44.60
21275;DHT22;36472;52.170;20.884;2023-07-31T08:15:47;35.30;45.30
21275;DHT22;36472;52.170;20.884;2023-07-31T08:18:17;35.30;45.10
21275;DHT22;36472;52.170;20.884;2023-07-31T08:20:46;35.30;45.40
21275;DHT22;36472;52.170;20.884;2023-07-31T08:23:16;35.40;46.10
21275;DHT22;36472;52.170;20.884;2023-07-31T08:25:45;35.50;45.00
21275;DHT22;36472;52.170;20.884;2023-07-31T08:28:14;35.60;44.50
21275;DHT22;36472;52.170;20.884;2023-07-31T08:30:43;35.70;44.00
21275;DHT22;36472;52.170;20.884;2023-07-31T08:33:13;35.80;43.80
21275;DHT22;36472;52.170;20.884;2023-07-31T08:35:43;35.80;44.40
21275;DHT22;36472;52.170;20.884;2023-07-31T08:38:12;35.90;43.20
21275;DHT22;36472;52.170;20.884;2023-07-31T08:40:41;35.90;43.80
21275;DHT22;36472;52.170;20.884;2023-07-31T08:43:10;36.00;44.10
21275;DHT22;36472;52.170;20.884;2023-07-31T08:45:42;36.10;43.40
21275;DHT22;36472;52.170;20.884;2023-07-31T08:48:11;36.20;43.40
21275;DHT22;36472;52.170;20.884;2023-07-31T08:50:43;36.20;43.50
21275;DHT22;36472;52.170;20.884;2023-07-31T08:53:12;36.30;43.20
21275;DHT22;36472;52.170;20.884;2023-07-31T08:55:41;36.30;42.40
21275;DHT22;36472;52.170;20.884;2023-07-31T08:58:13;36.40;42.00
21275;DHT22;36472;52.170;20.884;2023-07-31T09:00:43;36.40;43.10
21275;DHT22;36472;52.170;20.884;2023-07-31T09:03:18;36.40;42.40
21275;DHT22;36472;52.170;20.884;2023-07-31T09:05:51;36.50;42.10
21275;DHT22;36472;52.170;20.884;2023-07-31T09:08:22;36.50;41.10
21275;DHT22;36472;52.170;20.884;2023-07-31T09:10:51;36.60;41.70
21275;DHT22;36472;52.170;20.884;2023-07-31T09:13:20;36.60;41.10
21275;DHT22;36472;52.170;20.884;2023-07-31T09:15:49;36.70;40.90
21275;DHT22;36472;52.170;20.884;2023-07-31T09:18:18;36.70;41.40
21275;DHT22;36472;52.170;20.884;2023-07-31T09:21:02;36.70;41.10
21275;DHT22;36472;52.170;20.884;2023-07-31T09:23:42;36.80;40.80
21275;DHT22;36472;52.170;20.884;2023-07-31T09:26:28;36.80;41.60
21275;DHT22;36472;52.170;20.884;2023-07-31T09:28:59;36.90;41.60
21275;DHT22;36472;52.170;20.884;2023-07-31T09:31:41;36.90;40.70
21275;DHT22;36472;52.170;20.884;2023-07-31T09:34:11;37.00;40.80
21275;DHT22;36472;52.170;20.884;2023-07-31T09:36:43;37.10;39.40
21275;DHT22;36472;52.170;20.884;2023-07-31T09:39:14;37.10;39.20
21275;DHT22;36472;52.170;20.884;2023-07-31T09:41:46;37.10;39.00
21275;DHT22;36472;52.170;20.884;2023-07-31T09:44:16;37.00;39.10
21275;DHT22;36472;52.170;20.884;2023-07-31T09:46:45;37.00;39.60
21275;DHT22;36472;52.170;20.884;2023-07-31T09:49:14;37.00;39.50
21275;DHT22;36472;52.170;20.884;2023-07-31T09:51:44;37.10;39.60
21275;DHT22;36472;52.170;20.884;2023-07-31T09:54:15;37.10;38.90
21275;DHT22;36472;52.170;20.884;2023-07-31T09:56:46;37.20;38.90
21275;DHT22;36472;52.170;20.884;2023-07-31T09:59:18;37.20;38.10
21275;DHT22;36472;52.170;20.884;2023-07-31T10:01:51;37.30;37.60
21275;DHT22;36472;52.170;20.884;2023-07-31T10:04:24;37.40;37.80
21275;DHT22;36472;52.170;20.884;2023-07-31T10:06:59;37.50;37.70
21275;DHT22;36472;52.170;20.884;2023-07-31T10:09:32;37.50;37.70
21275;DHT22;36472;52.170;20.884;2023-07-31T10:12:07;37.50;37.30
21275;DHT22;36472;52.170;20.884;2023-07-31T10:14:39;37.60;37.20
21275;DHT22;36472;52.170;20.884;2023-07-31T10:17:09;37.60;35.50
21275;DHT22;36472;52.170;20.884;2023-07-31T10:19:40;37.70;35.70
21275;DHT22;36472;52.170;20.884;2023-07-31T10:22:11;37.70;35.70
21275;DHT22;36472;52.170;20.884;2023-07-31T10:24:42;37.70;35.30
21275;DHT22;36472;52.170;20.884;2023-07-31T10:27:12;37.80;35.20
21275;DHT22;36472;52.170;20.884;2023-07-31T10:29:43;37.90;35.50
21275;DHT22;36472;52.170;20.884;2023-07-31T10:32:16;38.00;34.10
21275;DHT22;36472;52.170;20.884;2023-07-31T10:34:46;38.30;34.90
21275;DHT22;36472;52.170;20.884;2023-07-31T10:37:29;38.50;35.10
21275;DHT22;36472;52.170;20.884;2023-07-31T10:40:07;38.70;35.00
21275;DHT22;36472;52.170;20.884;2023-07-31T10:42:47;38.90;33.90
21275;DHT22;36472;52.170;20.884;2023-07-31T10:45:25;39.10;33.40
21275;DHT22;36472;52.170;20.884;2023-07-31T10:47:59;39.20;32.50
21275;DHT22;36472;52.170;20.884;2023-07-31T10:50:31;39.20;33.20
21275;DHT22;36472;52.170;20.884;2023-07-31T10:53:02;39.30;33.70
21275;DHT22;36472;52.170;20.884;2023-07-31T10:55:33;39.10;33.00
21275;DHT22;36472;52.170;20.884;2023-07-31T10:58:08;39.10;33.40
21275;DHT22;36472;52.170;20.884;2023-07-31T11:00:39;39.00;34.10
21275;DHT22;36472;52.170;20.884;2023-07-31T11:03:13;38.90;33.60
21275;DHT22;36472;52.170;20.884;2023-07-31T11:05:49;38.80;33.50
21275;DHT22;36472;52.170;20.884;2023-07-31T11:08:25;38.70;33.00
21275;DHT22;36472;52.170;20.884;2023-07-31T11:11:05;38.60;34.60
21275;DHT22;36472;52.170;20.884;2023-07-31T11:13:42;38.50;33.70
21275;DHT22;36472;52.170;20.884;2023-07-31T11:16:13;38.50;34.10
21275;DHT22;36472;52.170;20.884;2023-07-31T11:18:44;38.40;34.00
21275;DHT22;36472;52.170;20.884;2023-07-31T11:21:15;38.50;34.20
21275;DHT22;36472;52.170;20.884;2023-07-31T11:23:47;38.50;34.20
21275;DHT22;36472;52.170;20.884;2023-07-31T11:26:18;38.50;33.90
21275;DHT22;36472;52.170;20.884;2023-07-31T11:28:49;38.50;33.90
21275;DHT22;36472;52.170;20.884;2023-07-31T11:31:19;38.50;34.10
21275;DHT22;36472;52.170;20.884;2023-07-31T11:33:48;38.50;33.80
21275;DHT22;36472;52.170;20.884;2023-07-31T11:36:19;38.50;35.00
21275;DHT22;36472;52.170;20.884;2023-07-31T11:38:50;38.50;34.90
21275;DHT22;36472;52.170;20.884;2023-07-31T11:41:19;38.40;34.00
21275;DHT22;36472;52.170;20.884;2023-07-31T11:43:48;38.30;34.60
21275;DHT22;36472;52.170;20.884;2023-07-31T11:46:17;38.30;34.50
21275;DHT22;36472;52.170;20.884;2023-07-31T11:48:46;38.20;35.50
21275;DHT22;36472;52.170;20.884;2023-07-31T11:51:17;38.10;35.10
21275;DHT22;36472;52.170;20.884;2023-07-31T11:53:53;38.10;35.70
21275;DHT22;36472;52.170;20.884;2023-07-31T11:56:26;38.00;35.80
21275;DHT22;36472;52.170;20.884;2023-07-31T11:58:58;38.00;36.20
21275;DHT22;36472;52.170;20.884;2023-07-31T12:01:31;37.90;35.80
21275;DHT22;36472;52.170;20.884;2023-07-31T12:04:00;37.90;35.80
21275;DHT22;36472;52.170;20.884;2023-07-31T12:06:33;37.80;35.90
21275;DHT22;36472;52.170;20.884;2023-07-31T12:09:05;37.80;36.30
21275;DHT22;36472;52.170;20.884;2023-07-31T12:11:43;37.80;36.30
21275;DHT22;36472;52.170;20.884;2023-07-31T12:14:20;37.70;36.50
21275;DHT22;36472;52.170;20.884;2023-07-31T12:16:54;37.70;36.60
21275;DHT22;36472;52.170;20.884;2023-07-31T12:19:25;37.60;36.60
21275;DHT22;36472;52.170;20.884;2023-07-31T12:21:59;37.60;36.50
21275;DHT22;36472;52.170;20.884;2023-07-31T12:24:29;37.60;37.40
21275;DHT22;36472;52.170;20.884;2023-07-31T12:26:58;37.60;36.80
21275;DHT22;36472;52.170;20.884;2023-07-31T12:29:34;37.60;37.30
21275;DHT22;36472;52.170;20.884;2023-07-31T12:32:21;37.60;36.70
21275;DHT22;36472;52.170;20.884;2023-07-31T12:34:51;37.60;37.10
21275;DHT22;36472;52.170;20.884;2023-07-31T12:37:20;37.70;37.60
21275;DHT22;36472;52.170;20.884;2023-07-31T12:39:51;37.70;37.70
21275;DHT22;36472;52.170;20.884;2023-07-31T12:42:20;37.70;36.90
21275;DHT22;36472;52.170;20.884;2023-07-31T12:44:49;37.70;36.10
21275;DHT22;36472;52.170;20.884;2023-07-31T12:47:18;37.70;36.60
21275;DHT22;36472;52.170;20.884;2023-07-31T12:49:47;37.60;36.70
21275;DHT22;36472;52.170;20.884;2023-07-31T12:52:16;37.60;35.10
21275;DHT22;36472;52.170;20.884;2023-07-31T12:54:44;37.60;35.90
21275;DHT22;36472;52.170;20.884;2023-07-31T12:57:15;37.60;35.20
21275;DHT22;36472;52.170;20.884;2023-07-31T12:59:44;37.60;35.90
21275;DHT22;36472;52.170;20.884;2023-07-31T13:02:13;37.50;36.30
21275;DHT22;36472;52.170;20.884;2023-07-31T13:04:45;37.50;35.90
21275;DHT22;36472;52.170;20.884;2023-07-31T13:07:14;37.50;35.50
21275;DHT22;36472;52.170;20.884;2023-07-31T13:09:43;37.60;35.50
21275;DHT22;36472;52.170;20.884;2023-07-31T13:12:12;37.60;35.10
21275;DHT22;36472;52.170;20.884;2023-07-31T13:14:42;37.60;35.20
21275;DHT22;36472;52.170;20.884;2023-07-31T13:17:11;37.60;35.60
21275;DHT22;36472;52.170;20.884;2023-07-31T13:19:40;37.70;35.20
21275;DHT22;36472;52.170;20.884;2023-07-31T13:22:09;37.70;34.90
21275;DHT22;36472;52.170;20.884;2023-07-31T13:24:37;37.70;35.20
21275;DHT22;36472;52.170;20.884;2023-07-31T13:27:06;37.80;33.80
21275;DHT22;36472;52.170;20.884;2023-07-31T13:29:35;37.80;35.40
21275;DHT22;36472;52.170;20.884;2023-07-31T13:32:06;37.80;34.80
21275;DHT22;36472;52.170;20.884;2023-07-31T13:34:35;37.80;35.90
21275;DHT22;36472;52.170;20.884;2023-07-31T13:37:04;37.90;34.10
21275;DHT22;36472;52.170;20.884;2023-07-31T13:39:34;37.90;34.30
21275;DHT22;36472;52.170;20.884;2023-07-31T13:42:04;37.90;34.10
21275;DHT22;36472;52.170;20.884;2023-07-31T13:44:35;37.90;34.40
21275;DHT22;36472;52.170;20.884;2023-07-31T13:47:06;38.00;34.60
21275;DHT22;36472;52.170;20.884;2023-07-31T13:49:35;37.90;33.70
21275;DHT22;36472;52.170;20.884;2023-07-31T13:52:06;37.90;33.60
21275;DHT22;36472;52.170;20.884;2023-07-31T13:54:35;37.90;33.80
21275;DHT22;36472;52.170;20.884;2023-07-31T13:57:05;37.90;34.50
21275;DHT22;36472;52.170;20.884;2023-07-31T13:59:34;37.90;34.70
21275;DHT22;36472;52.170;20.884;2023-07-31T14:02:05;38.00;34.30
21275;DHT22;36472;52.170;20.884;2023-07-31T14:04:35;38.00;34.40
21275;DHT22;36472;52.170;20.884;2023-07-31T14:07:04;37.90;34.10
21275;DHT22;36472;52.170;20.884;2023-07-31T14:09:34;37.90;34.60
21275;DHT22;36472;52.170;20.884;2023-07-31T14:12:04;37.80;35.40
21275;DHT22;36472;52.170;20.884;2023-07-31T14:14:33;37.80;34.90
21275;DHT22;36472;52.170;20.884;2023-07-31T14:17:03;37.80;34.90
21275;DHT22;36472;52.170;20.884;2023-07-31T14:19:33;37.80;35.30
21275;DHT22;36472;52.170;20.884;2023-07-31T14:22:03;37.80;35.10
21275;DHT22;36472;52.170;20.884;2023-07-31T14:24:38;37.70;35.10
21275;DHT22;36472;52.170;20.884;2023-07-31T14:27:07;37.70;35.20
21275;DHT22;36472;52.170;20.884;2023-07-31T14:29:38;37.60;35.80
21275;DHT22;36472;52.170;20.884;2023-07-31T14:32:08;37.60;35.50
21275;DHT22;36472;52.170;20.884;2023-07-31T14:34:38;37.60;35.60
21275;DHT22;36472;52.170;20.884;2023-07-31T14:37:07;37.60;35.70
21275;DHT22;36472;52.170;20.884;2023-07-31T14:39:36;37.60;36.10
21275;DHT22;36472;52.170;20.884;2023-07-31T14:42:07;37.60;36.10
21275;DHT22;36472;52.170;20.884;2023-07-31T14:44:37;37.70;36.30
21275;DHT22;36472;52.170;20.884;2023-07-31T14:47:07;37.70;36.90
21275;DHT22;36472;52.170;20.884;2023-07-31T14:49:36;37.80;37.30
21275;DHT22;36472;52.170;20.884;2023-07-31T14:52:07;37.80;36.00
21275;DHT22;36472;52.170;20.884;2023-07-31T14:54:36;37.90;36.30
21275;DHT22;36472;52.170;20.884;2023-07-31T14:57:06;37.80;36.70
21275;DHT22;36472;52.170;20.884;2023-07-31T14:59:35;37.80;36.80
21275;DHT22;36472;52.170;20.884;2023-07-31T15:02:05;37.80;36.50
21275;DHT22;36472;52.170;20.884;2023-07-31T15:04:35;37.80;37.30
21275;DHT22;36472;52.170;20.884;2023-07-31T15:07:06;37.80;38.20
21275;DHT22;36472;52.170;20.884;2023-07-31T15:09:35;37.70;36.20
21275;DHT22;36472;52.170;20.884;2023-07-31T15:12:05;37.70;36.60
21275;DHT22;36472;52.170;20.884;2023-07-31T15:14:35;37.70;36.70
21275;DHT22;36472;52.170;20.884;2023-07-31T15:17:04;37.70;36.90
21275;DHT22;36472;52.170;20.884;2023-07-31T15:19:33;37.70;36.20
21275;DHT22;36472;52.170;20.884;2023-07-31T15:22:05;37.70;36.00
21275;DHT22;36472;52.170;20.884;2023-07-31T15:24:34;37.60;36.60
21275;DHT22;36472;52.170;20.884;2023-07-31T15:27:04;37.70;36.80
21275;DHT22;36472;52.170;20.884;2023-07-31T15:29:33;37.70;36.80
21275;DHT22;36472;52.170;20.884;2023-07-31T15:32:05;37.70;36.10
21275;DHT22;36472;52.170;20.884;2023-07-31T15:34:34;37.70;36.20